Have a Safe July 4th! 

Flight Track Log - Related Links

Times and Time Zones

All times are in EDT time to prevent confusion due to time zone crossing. See the DAL3878 flight status page for this flight to view local times or setup timezone preferences in your user account.

Time Position Orientation Groundspeed Altitude Reporting Facility
EDT Latitude Longitude Course Direction KTS MPH feet Rate Location/Type
Thu 04:11:03 PM 42.2081 -83.3675 231° Southwest 147 169 1,500  Level Cleveland Center
Thu 04:11:16 PM 42.2033 -83.3753 231° Southwest 145 167 2,000 2,189 Climbing Cleveland Center
Thu 04:12:17 PM 42.1714 -83.4356 234° Southwest 217 250 4,200 1,664 Climbing Cleveland Center
Thu 04:13:15 PM 42.1603 -83.5036 258° West 247 284 5,300 2,370 Climbing Cleveland Center
Thu 04:14:16 PM 42.1997 -83.5781 306° West 257 296 8,900 2,293 Climbing Cleveland Center
Thu 04:15:18 PM 42.2458 -83.6594 307° West 266 306 10,000 532 Climbing Cleveland Center
Thu 04:16:20 PM 42.3108 -83.7703 308° West 306 352 10,000  Level Cleveland Center
Thu 04:17:23 PM 42.3614 -83.8564 308° West 297 342 10,000  Level Cleveland Center
Thu 04:18:25 PM 42.4153 -83.9514 308° West 294 338 10,000 -145 Level Cleveland Center
Thu 04:19:27 PM 42.4542 -84.0408 301° West 276 318 9,700 -1,113 Descending Cleveland Center
Thu 04:20:29 PM 42.4328 -84.1347 253° West 246 283 7,700 -1,984 Descending Cleveland Center
Thu 04:21:31 PM 42.4153 -84.2236 255° West 245 282 5,600 -1,742 Descending Cleveland Center
Thu 04:22:33 PM 42.3956 -84.3153 254° West 246 283 4,100 -726 Descending Cleveland Center
Thu 04:23:35 PM 42.3853 -84.3931 260° West 254 292 4,100 -48 Level Cleveland Center
Thu 04:24:37 PM 42.4569 -84.4250 342° North 271 312 4,000 -48 Descending Cleveland Center
Thu 04:25:39 PM 42.5331 -84.4350 354° North 274 315 4,000  Level Cleveland Center
Thu 04:26:41 PM 42.6092 -84.4444 355° North 274 315 4,000 -48 Level Cleveland Center
Thu 04:27:44 PM 42.6950 -84.4553 355° North 265 305 3,900 -624 Descending Cleveland Center
Thu 04:28:46 PM 42.7547 -84.4631 355° North 203 234 2,700 -968 Descending Cleveland Center
Thu 04:29:48 PM 42.7767 -84.5069 304° West 150 173 1,900 -435 Descending Cleveland Center
Thu 04:30:50 PM 42.7792 -84.5489 275° West 146 168 1,800 -97 Descending Cleveland Center

Login

Don't have an account? Register now (free) for customized features, flight alerts, and more!